sensor_id;sensor_type;location;lat;lon;timestamp;temperature;humidity
20845;DHT22;10583;49.084;8.646;2024-01-16T00:02:21;-0.80;99.90
20845;DHT22;10583;49.084;8.646;2024-01-16T00:04:48;-0.80;99.90
20845;DHT22;10583;49.084;8.646;2024-01-16T00:07:14;-0.80;99.90
20845;DHT22;10583;49.084;8.646;2024-01-16T00:09:41;-0.80;99.90
20845;DHT22;10583;49.084;8.646;2024-01-16T00:12:08;-0.90;99.90
20845;DHT22;10583;49.084;8.646;2024-01-16T00:14:37;-0.90;99.90
20845;DHT22;10583;49.084;8.646;2024-01-16T00:17:04;-0.90;99.90
20845;DHT22;10583;49.084;8.646;2024-01-16T00:19:31;-0.80;99.90
20845;DHT22;10583;49.084;8.646;2024-01-16T00:21:58;-0.90;99.90
20845;DHT22;10583;49.084;8.646;2024-01-16T00:24:25;-0.90;99.90
20845;DHT22;10583;49.084;8.646;2024-01-16T00:26:52;-0.90;99.90
20845;DHT22;10583;49.084;8.646;2024-01-16T00:29:19;-1.00;99.90
20845;DHT22;10583;49.084;8.646;2024-01-16T00:31:47;-1.00;99.90
20845;DHT22;10583;49.084;8.646;2024-01-16T00:34:14;-1.00;99.90
20845;DHT22;10583;49.084;8.646;2024-01-16T00:36:40;-0.90;99.90
20845;DHT22;10583;49.084;8.646;2024-01-16T00:39:07;-1.00;99.90
20845;DHT22;10583;49.084;8.646;2024-01-16T00:41:35;-0.90;99.90
20845;DHT22;10583;49.084;8.646;2024-01-16T00:44:01;-0.90;99.90
20845;DHT22;10583;49.084;8.646;2024-01-16T00:46:28;-0.90;99.90
20845;DHT22;10583;49.084;8.646;2024-01-16T00:48:56;-0.90;99.90
20845;DHT22;10583;49.084;8.646;2024-01-16T00:51:23;-0.90;99.90
20845;DHT22;10583;49.084;8.646;2024-01-16T00:53:49;-0.90;99.90
20845;DHT22;10583;49.084;8.646;2024-01-16T00:56:16;-0.80;99.90
20845;DHT22;10583;49.084;8.646;2024-01-16T00:58:43;-0.90;99.90
20845;DHT22;10583;49.084;8.646;2024-01-16T01:01:09;-0.90;99.90
20845;DHT22;10583;49.084;8.646;2024-01-16T01:03:36;-0.90;99.90
20845;DHT22;10583;49.084;8.646;2024-01-16T01:06:05;-0.90;99.90
20845;DHT22;10583;49.084;8.646;2024-01-16T01:08:31;-0.90;99.90
20845;DHT22;10583;49.084;8.646;2024-01-16T01:10:58;-0.90;99.90
20845;DHT22;10583;49.084;8.646;2024-01-16T01:13:25;-0.90;99.90
20845;DHT22;10583;49.084;8.646;2024-01-16T01:15:52;-0.90;99.90
20845;DHT22;10583;49.084;8.646;2024-01-16T01:18:18;-0.90;99.90
20845;DHT22;10583;49.084;8.646;2024-01-16T01:20:45;-0.80;99.90
20845;DHT22;10583;49.084;8.646;2024-01-16T01:23:13;-0.80;99.90
20845;DHT22;10583;49.084;8.646;2024-01-16T01:25:40;-0.90;99.90
20845;DHT22;10583;49.084;8.646;2024-01-16T01:28:06;-0.90;99.90
20845;DHT22;10583;49.084;8.646;2024-01-16T01:30:33;-0.90;99.90
20845;DHT22;10583;49.084;8.646;2024-01-16T01:33:00;-0.90;99.90
20845;DHT22;10583;49.084;8.646;2024-01-16T01:35:26;-0.90;99.90
20845;DHT22;10583;49.084;8.646;2024-01-16T01:37:53;-0.90;99.90
20845;DHT22;10583;49.084;8.646;2024-01-16T01:40:21;-0.90;99.90
20845;DHT22;10583;49.084;8.646;2024-01-16T01:42:48;-0.90;99.90
20845;DHT22;10583;49.084;8.646;2024-01-16T01:45:15;-1.00;99.90
20845;DHT22;10583;49.084;8.646;2024-01-16T01:47:42;-1.00;99.90
20845;DHT22;10583;49.084;8.646;2024-01-16T01:50:09;-1.00;99.90
20845;DHT22;10583;49.084;8.646;2024-01-16T01:52:38;-1.00;99.90
20845;DHT22;10583;49.084;8.646;2024-01-16T01:55:08;-0.90;99.90
20845;DHT22;10583;49.084;8.646;2024-01-16T01:57:38;-0.90;99.90
20845;DHT22;10583;49.084;8.646;2024-01-16T02:00:06;-1.00;99.90
20845;DHT22;10583;49.084;8.646;2024-01-16T02:02:33;-1.00;99.90
20845;DHT22;10583;49.084;8.646;2024-01-16T02:05:00;-1.00;99.90
20845;DHT22;10583;49.084;8.646;2024-01-16T02:07:28;-1.00;99.90
20845;DHT22;10583;49.084;8.646;2024-01-16T02:09:55;-1.10;99.90
20845;DHT22;10583;49.084;8.646;2024-01-16T02:12:22;-1.10;99.90
20845;DHT22;10583;49.084;8.646;2024-01-16T02:14:50;-1.10;99.90
20845;DHT22;10583;49.084;8.646;2024-01-16T02:17:16;-1.10;99.90
20845;DHT22;10583;49.084;8.646;2024-01-16T02:19:43;-1.10;99.90
20845;DHT22;10583;49.084;8.646;2024-01-16T02:22:15;-1.10;99.90
20845;DHT22;10583;49.084;8.646;2024-01-16T02:24:44;-1.10;99.90
20845;DHT22;10583;49.084;8.646;2024-01-16T02:27:10;-1.10;99.90
20845;DHT22;10583;49.084;8.646;2024-01-16T02:29:40;-1.20;99.90
20845;DHT22;10583;49.084;8.646;2024-01-16T02:32:07;-1.20;99.90
20845;DHT22;10583;49.084;8.646;2024-01-16T02:34:34;-1.10;99.90
20845;DHT22;10583;49.084;8.646;2024-01-16T02:37:00;-1.20;99.90
20845;DHT22;10583;49.084;8.646;2024-01-16T02:39:27;-1.20;99.90
20845;DHT22;10583;49.084;8.646;2024-01-16T02:41:55;-1.20;99.90
20845;DHT22;10583;49.084;8.646;2024-01-16T02:44:22;-1.20;99.90
20845;DHT22;10583;49.084;8.646;2024-01-16T02:46:48;-1.20;99.90
20845;DHT22;10583;49.084;8.646;2024-01-16T02:49:15;-1.20;99.90
20845;DHT22;10583;49.084;8.646;2024-01-16T02:51:42;-1.20;99.90
20845;DHT22;10583;49.084;8.646;2024-01-16T02:54:09;-1.20;99.90
20845;DHT22;10583;49.084;8.646;2024-01-16T02:56:37;-1.20;99.90
20845;DHT22;10583;49.084;8.646;2024-01-16T02:59:05;-1.30;99.90
20845;DHT22;10583;49.084;8.646;2024-01-16T03:01:32;-1.20;99.90
20845;DHT22;10583;49.084;8.646;2024-01-16T03:03:58;-1.20;99.90
20845;DHT22;10583;49.084;8.646;2024-01-16T03:06:25;-1.20;99.90
20845;DHT22;10583;49.084;8.646;2024-01-16T03:08:53;-1.10;99.90
20845;DHT22;10583;49.084;8.646;2024-01-16T03:11:20;-1.10;99.90
20845;DHT22;10583;49.084;8.646;2024-01-16T03:13:47;-1.10;99.90
20845;DHT22;10583;49.084;8.646;2024-01-16T03:16:16;-1.20;99.90
20845;DHT22;10583;49.084;8.646;2024-01-16T03:18:43;-1.20;99.90
20845;DHT22;10583;49.084;8.646;2024-01-16T03:21:10;-1.10;99.90
20845;DHT22;10583;49.084;8.646;2024-01-16T03:23:37;-1.20;99.90
20845;DHT22;10583;49.084;8.646;2024-01-16T03:26:04;-1.20;99.90
20845;DHT22;10583;49.084;8.646;2024-01-16T03:28:30;-1.30;99.90
20845;DHT22;10583;49.084;8.646;2024-01-16T03:30:57;-1.30;99.90
20845;DHT22;10583;49.084;8.646;2024-01-16T03:33:25;-1.30;99.90
20845;DHT22;10583;49.084;8.646;2024-01-16T03:35:52;-1.40;99.90
20845;DHT22;10583;49.084;8.646;2024-01-16T03:38:18;-1.40;99.90
20845;DHT22;10583;49.084;8.646;2024-01-16T03:40:45;-1.40;99.90
20845;DHT22;10583;49.084;8.646;2024-01-16T03:43:12;-1.40;99.90
20845;DHT22;10583;49.084;8.646;2024-01-16T03:45:39;-1.40;99.90
20845;DHT22;10583;49.084;8.646;2024-01-16T03:48:06;-1.40;99.90
20845;DHT22;10583;49.084;8.646;2024-01-16T03:50:34;-1.40;99.90
20845;DHT22;10583;49.084;8.646;2024-01-16T03:53:02;-1.50;99.90
20845;DHT22;10583;49.084;8.646;2024-01-16T03:55:30;-1.50;99.90
20845;DHT22;10583;49.084;8.646;2024-01-16T03:57:57;-1.50;99.90
20845;DHT22;10583;49.084;8.646;2024-01-16T04:00:24;-1.50;99.90
20845;DHT22;10583;49.084;8.646;2024-01-16T04:02:50;-1.50;99.90
20845;DHT22;10583;49.084;8.646;2024-01-16T04:05:17;-1.50;99.90
20845;DHT22;10583;49.084;8.646;2024-01-16T04:07:45;-1.50;99.90
20845;DHT22;10583;49.084;8.646;2024-01-16T04:10:11;-1.50;99.90
20845;DHT22;10583;49.084;8.646;2024-01-16T04:12:38;-1.60;99.90
20845;DHT22;10583;49.084;8.646;2024-01-16T04:15:05;-1.50;99.90
20845;DHT22;10583;49.084;8.646;2024-01-16T04:17:32;-1.50;99.90
20845;DHT22;10583;49.084;8.646;2024-01-16T04:19:59;-1.50;99.90
20845;DHT22;10583;49.084;8.646;2024-01-16T04:22:26;-1.40;99.90
20845;DHT22;10583;49.084;8.646;2024-01-16T04:24:54;-1.50;99.90
20845;DHT22;10583;49.084;8.646;2024-01-16T04:27:20;-1.50;99.90
20845;DHT22;10583;49.084;8.646;2024-01-16T04:29:47;-1.50;99.90
20845;DHT22;10583;49.084;8.646;2024-01-16T04:32:14;-1.60;99.90
20845;DHT22;10583;49.084;8.646;2024-01-16T04:34:41;-1.60;99.90
20845;DHT22;10583;49.084;8.646;2024-01-16T04:37:08;-1.50;99.90
20845;DHT22;10583;49.084;8.646;2024-01-16T04:39:34;-1.50;99.90
20845;DHT22;10583;49.084;8.646;2024-01-16T04:42:03;-1.60;99.90
20845;DHT22;10583;49.084;8.646;2024-01-16T04:44:30;-1.60;99.90
20845;DHT22;10583;49.084;8.646;2024-01-16T04:46:56;-1.70;99.90
20845;DHT22;10583;49.084;8.646;2024-01-16T04:49:23;-1.70;99.90
20845;DHT22;10583;49.084;8.646;2024-01-16T04:51:50;-1.70;99.90
20845;DHT22;10583;49.084;8.646;2024-01-16T04:54:17;-1.70;99.90
20845;DHT22;10583;49.084;8.646;2024-01-16T04:56:43;-1.70;99.90
20845;DHT22;10583;49.084;8.646;2024-01-16T04:59:10;-1.70;99.90
20845;DHT22;10583;49.084;8.646;2024-01-16T05:01:37;-1.70;99.90
20845;DHT22;10583;49.084;8.646;2024-01-16T05:04:04;-1.70;99.90
20845;DHT22;10583;49.084;8.646;2024-01-16T05:06:33;-1.70;99.90
20845;DHT22;10583;49.084;8.646;2024-01-16T05:09:00;-1.60;99.90
20845;DHT22;10583;49.084;8.646;2024-01-16T05:11:26;-1.60;99.90
20845;DHT22;10583;49.084;8.646;2024-01-16T05:13:53;-1.60;99.90
20845;DHT22;10583;49.084;8.646;2024-01-16T05:16:24;-1.60;99.90
20845;DHT22;10583;49.084;8.646;2024-01-16T05:18:51;-1.70;99.90
20845;DHT22;10583;49.084;8.646;2024-01-16T05:21:19;-1.70;99.90
20845;DHT22;10583;49.084;8.646;2024-01-16T05:23:46;-1.80;99.90
20845;DHT22;10583;49.084;8.646;2024-01-16T05:26:12;-1.80;99.90
20845;DHT22;10583;49.084;8.646;2024-01-16T05:28:39;-1.80;99.90
20845;DHT22;10583;49.084;8.646;2024-01-16T05:31:06;-1.80;99.90
20845;DHT22;10583;49.084;8.646;2024-01-16T05:33:34;-1.80;99.90
20845;DHT22;10583;49.084;8.646;2024-01-16T05:36:01;-1.80;99.90
20845;DHT22;10583;49.084;8.646;2024-01-16T05:38:28;-1.80;99.90
20845;DHT22;10583;49.084;8.646;2024-01-16T05:40:54;-1.80;99.90
20845;DHT22;10583;49.084;8.646;2024-01-16T05:43:21;-1.80;99.90
20845;DHT22;10583;49.084;8.646;2024-01-16T05:45:48;-1.90;99.90
20845;DHT22;10583;49.084;8.646;2024-01-16T05:48:15;-1.90;99.90
20845;DHT22;10583;49.084;8.646;2024-01-16T05:50:43;-1.90;99.90
20845;DHT22;10583;49.084;8.646;2024-01-16T05:53:10;-1.90;99.90
20845;DHT22;10583;49.084;8.646;2024-01-16T05:55:37;-1.90;99.90
20845;DHT22;10583;49.084;8.646;2024-01-16T05:58:03;-1.90;99.90
20845;DHT22;10583;49.084;8.646;2024-01-16T06:00:30;-1.90;99.90
20845;DHT22;10583;49.084;8.646;2024-01-16T06:02:59;-1.90;99.90
20845;DHT22;10583;49.084;8.646;2024-01-16T06:05:25;-2.00;99.90
20845;DHT22;10583;49.084;8.646;2024-01-16T06:07:53;-2.00;99.90
20845;DHT22;10583;49.084;8.646;2024-01-16T06:10:20;-2.00;99.90
20845;DHT22;10583;49.084;8.646;2024-01-16T06:12:47;-2.00;99.90
20845;DHT22;10583;49.084;8.646;2024-01-16T06:15:14;-2.00;99.90
20845;DHT22;10583;49.084;8.646;2024-01-16T06:17:41;-2.00;99.90
20845;DHT22;10583;49.084;8.646;2024-01-16T06:20:08;-2.10;99.90
20845;DHT22;10583;49.084;8.646;2024-01-16T06:22:35;-2.00;99.90
20845;DHT22;10583;49.084;8.646;2024-01-16T06:25:04;-2.00;99.90
20845;DHT22;10583;49.084;8.646;2024-01-16T06:27:31;-2.00;99.90
20845;DHT22;10583;49.084;8.646;2024-01-16T06:29:58;-2.00;99.90
20845;DHT22;10583;49.084;8.646;2024-01-16T06:32:25;-2.00;99.90
20845;DHT22;10583;49.084;8.646;2024-01-16T06:34:51;-2.00;99.90
20845;DHT22;10583;49.084;8.646;2024-01-16T06:37:18;-2.10;99.90
20845;DHT22;10583;49.084;8.646;2024-01-16T06:39:45;-2.10;99.90
20845;DHT22;10583;49.084;8.646;2024-01-16T06:42:13;-2.00;99.90
20845;DHT22;10583;49.084;8.646;2024-01-16T06:44:40;-2.10;99.90
20845;DHT22;10583;49.084;8.646;2024-01-16T06:47:06;-2.10;99.90
20845;DHT22;10583;49.084;8.646;2024-01-16T06:49:33;-2.10;99.90
20845;DHT22;10583;49.084;8.646;2024-01-16T06:51:59;-2.30;99.90
20845;DHT22;10583;49.084;8.646;2024-01-16T06:54:26;-2.60;99.90
20845;DHT22;10583;49.084;8.646;2024-01-16T06:56:53;-2.60;99.90
20845;DHT22;10583;49.084;8.646;2024-01-16T06:59:21;-2.50;99.90
20845;DHT22;10583;49.084;8.646;2024-01-16T07:01:48;-2.40;99.90
20845;DHT22;10583;49.084;8.646;2024-01-16T07:04:14;-2.60;99.90
20845;DHT22;10583;49.084;8.646;2024-01-16T07:06:41;-2.60;99.90
20845;DHT22;10583;49.084;8.646;2024-01-16T07:09:08;-2.70;99.90
20845;DHT22;10583;49.084;8.646;2024-01-16T07:11:36;-2.70;99.90
20845;DHT22;10583;49.084;8.646;2024-01-16T07:14:03;-2.70;99.90
20845;DHT22;10583;49.084;8.646;2024-01-16T07:16:31;-2.70;99.90
20845;DHT22;10583;49.084;8.646;2024-01-16T07:18:58;-2.60;99.90
20845;DHT22;10583;49.084;8.646;2024-01-16T07:21:25;-2.50;99.90
20845;DHT22;10583;49.084;8.646;2024-01-16T07:23:52;-2.40;99.90
20845;DHT22;10583;49.084;8.646;2024-01-16T07:26:18;-2.30;99.90
20845;DHT22;10583;49.084;8.646;2024-01-16T07:28:45;-2.30;99.90
20845;DHT22;10583;49.084;8.646;2024-01-16T07:31:13;-2.20;99.90
20845;DHT22;10583;49.084;8.646;2024-01-16T07:33:41;-2.20;99.90
20845;DHT22;10583;49.084;8.646;2024-01-16T07:36:09;-2.10;99.90
20845;DHT22;10583;49.084;8.646;2024-01-16T07:38:35;-2.10;99.90
20845;DHT22;10583;49.084;8.646;2024-01-16T07:41:03;-2.10;99.90
20845;DHT22;10583;49.084;8.646;2024-01-16T07:43:29;-2.10;99.90
20845;DHT22;10583;49.084;8.646;2024-01-16T07:45:56;-2.10;99.90
20845;DHT22;10583;49.084;8.646;2024-01-16T07:48:23;-2.10;99.90
20845;DHT22;10583;49.084;8.646;2024-01-16T07:50:51;-2.20;99.90
20845;DHT22;10583;49.084;8.646;2024-01-16T07:53:18;-2.20;99.90
20845;DHT22;10583;49.084;8.646;2024-01-16T07:55:44;-2.20;99.90
20845;DHT22;10583;49.084;8.646;2024-01-16T07:58:11;-2.20;99.90
20845;DHT22;10583;49.084;8.646;2024-01-16T08:00:38;-2.20;99.90
20845;DHT22;10583;49.084;8.646;2024-01-16T08:03:08;-2.10;99.90
20845;DHT22;10583;49.084;8.646;2024-01-16T08:05:36;-2.10;99.90
20845;DHT22;10583;49.084;8.646;2024-01-16T08:08:04;-2.10;99.90
20845;DHT22;10583;49.084;8.646;2024-01-16T08:10:31;-2.10;99.90
20845;DHT22;10583;49.084;8.646;2024-01-16T08:12:57;-2.10;99.90
20845;DHT22;10583;49.084;8.646;2024-01-16T08:15:24;-2.10;99.90
20845;DHT22;10583;49.084;8.646;2024-01-16T08:17:51;-2.10;99.90
20845;DHT22;10583;49.084;8.646;2024-01-16T08:20:17;-2.10;99.90
20845;DHT22;10583;49.084;8.646;2024-01-16T08:22:44;-2.10;99.90
20845;DHT22;10583;49.084;8.646;2024-01-16T08:25:12;-2.10;99.90
20845;DHT22;10583;49.084;8.646;2024-01-16T08:27:39;-2.10;99.90
20845;DHT22;10583;49.084;8.646;2024-01-16T08:30:07;-2.00;99.90
20845;DHT22;10583;49.084;8.646;2024-01-16T08:32:33;-2.00;99.90
20845;DHT22;10583;49.084;8.646;2024-01-16T08:35:00;-2.00;99.90
20845;DHT22;10583;49.084;8.646;2024-01-16T08:37:27;-2.00;99.90
20845;DHT22;10583;49.084;8.646;2024-01-16T08:39:53;-2.00;99.90
20845;DHT22;10583;49.084;8.646;2024-01-16T08:42:21;-2.00;99.90
20845;DHT22;10583;49.084;8.646;2024-01-16T08:44:48;-1.90;99.90
20845;DHT22;10583;49.084;8.646;2024-01-16T08:47:15;-1.90;99.90
20845;DHT22;10583;49.084;8.646;2024-01-16T08:49:41;-1.80;99.90
20845;DHT22;10583;49.084;8.646;2024-01-16T08:52:09;-1.80;99.90
20845;DHT22;10583;49.084;8.646;2024-01-16T08:54:35;-1.70;99.90
20845;DHT22;10583;49.084;8.646;2024-01-16T08:57:03;-1.60;99.90
20845;DHT22;10583;49.084;8.646;2024-01-16T08:59:31;-1.60;99.90
20845;DHT22;10583;49.084;8.646;2024-01-16T09:01:57;-1.60;99.90
20845;DHT22;10583;49.084;8.646;2024-01-16T09:04:24;-1.60;99.90
20845;DHT22;10583;49.084;8.646;2024-01-16T09:06:51;-1.50;99.90
20845;DHT22;10583;49.084;8.646;2024-01-16T09:09:18;-1.50;99.90
20845;DHT22;10583;49.084;8.646;2024-01-16T09:11:45;-1.50;99.90
20845;DHT22;10583;49.084;8.646;2024-01-16T09:14:12;-1.50;99.90
20845;DHT22;10583;49.084;8.646;2024-01-16T09:16:40;-1.40;99.90
20845;DHT22;10583;49.084;8.646;2024-01-16T09:19:06;-1.30;99.90
20845;DHT22;10583;49.084;8.646;2024-01-16T09:21:34;-1.20;99.90
20845;DHT22;10583;49.084;8.646;2024-01-16T09:24:01;-1.20;99.90
20845;DHT22;10583;49.084;8.646;2024-01-16T09:26:28;-1.20;99.90
20845;DHT22;10583;49.084;8.646;2024-01-16T09:28:57;-1.20;99.90
20845;DHT22;10583;49.084;8.646;2024-01-16T09:31:23;-1.10;99.90
20845;DHT22;10583;49.084;8.646;2024-01-16T09:33:51;-1.00;99.90
20845;DHT22;10583;49.084;8.646;2024-01-16T09:36:18;-1.00;99.90
20845;DHT22;10583;49.084;8.646;2024-01-16T09:38:45;-0.90;99.90
20845;DHT22;10583;49.084;8.646;2024-01-16T09:41:11;-0.90;99.90
20845;DHT22;10583;49.084;8.646;2024-01-16T09:43:41;-0.80;99.90
20845;DHT22;10583;49.084;8.646;2024-01-16T09:46:08;-0.80;99.90
20845;DHT22;10583;49.084;8.646;2024-01-16T09:48:36;-0.80;99.90
20845;DHT22;10583;49.084;8.646;2024-01-16T09:51:04;-0.70;99.90
20845;DHT22;10583;49.084;8.646;2024-01-16T09:53:31;-0.70;99.90
20845;DHT22;10583;49.084;8.646;2024-01-16T09:56:02;-0.70;99.90
20845;DHT22;10583;49.084;8.646;2024-01-16T09:58:34;-0.60;99.90
20845;DHT22;10583;49.084;8.646;2024-01-16T10:01:03;-0.60;99.90
20845;DHT22;10583;49.084;8.646;2024-01-16T10:03:31;-0.60;99.90
20845;DHT22;10583;49.084;8.646;2024-01-16T10:05:58;-0.60;99.90
20845;DHT22;10583;49.084;8.646;2024-01-16T10:08:29;-0.50;99.90
20845;DHT22;10583;49.084;8.646;2024-01-16T10:10:57;-0.50;99.90
20845;DHT22;10583;49.084;8.646;2024-01-16T10:13:23;-0.50;99.90
20845;DHT22;10583;49.084;8.646;2024-01-16T10:15:50;-0.30;99.90
20845;DHT22;10583;49.084;8.646;2024-01-16T10:18:25;0.00;99.90
20845;DHT22;10583;49.084;8.646;2024-01-16T10:20:52;0.20;99.90
20845;DHT22;10583;49.084;8.646;2024-01-16T10:23:23;0.30;99.90
20845;DHT22;10583;49.084;8.646;2024-01-16T10:28:46;0.30;99.90
20845;DHT22;10583;49.084;8.646;2024-01-16T10:31:13;0.30;99.90
20845;DHT22;10583;49.084;8.646;2024-01-16T10:33:40;0.30;99.90
20845;DHT22;10583;49.084;8.646;2024-01-16T10:36:11;0.40;99.90
20845;DHT22;10583;49.084;8.646;2024-01-16T10:38:38;0.30;99.90
20845;DHT22;10583;49.084;8.646;2024-01-16T10:41:08;0.30;99.90
20845;DHT22;10583;49.084;8.646;2024-01-16T10:43:34;0.30;99.90
20845;DHT22;10583;49.084;8.646;2024-01-16T10:46:09;0.40;99.90
20845;DHT22;10583;49.084;8.646;2024-01-16T10:48:38;0.50;99.90
20845;DHT22;10583;49.084;8.646;2024-01-16T10:51:06;0.70;99.90
20845;DHT22;10583;49.084;8.646;2024-01-16T10:53:34;0.90;99.90
20845;DHT22;10583;49.084;8.646;2024-01-16T10:56:02;1.20;99.90
20845;DHT22;10583;49.084;8.646;2024-01-16T10:58:30;1.30;99.90
20845;DHT22;10583;49.084;8.646;2024-01-16T11:01:02;1.50;99.90
20845;DHT22;10583;49.084;8.646;2024-01-16T11:03:35;1.80;99.90
20845;DHT22;10583;49.084;8.646;2024-01-16T11:06:05;2.10;99.90
20845;DHT22;10583;49.084;8.646;2024-01-16T11:08:34;2.20;99.90
20845;DHT22;10583;49.084;8.646;2024-01-16T11:11:03;2.30;99.90
20845;DHT22;10583;49.084;8.646;2024-01-16T11:13:31;2.20;99.90
20845;DHT22;10583;49.084;8.646;2024-01-16T11:15:59;2.20;99.90
20845;DHT22;10583;49.084;8.646;2024-01-16T11:18:27;2.20;99.90
20845;DHT22;10583;49.084;8.646;2024-01-16T11:20:58;2.10;99.90
20845;DHT22;10583;49.084;8.646;2024-01-16T11:23:25;2.00;99.90
20845;DHT22;10583;49.084;8.646;2024-01-16T11:25:52;2.10;99.90
20845;DHT22;10583;49.084;8.646;2024-01-16T11:28:20;2.10;99.90
20845;DHT22;10583;49.084;8.646;2024-01-16T11:30:46;2.30;99.90
20845;DHT22;10583;49.084;8.646;2024-01-16T11:33:41;2.30;99.90
20845;DHT22;10583;49.084;8.646;2024-01-16T11:36:42;2.60;99.90
20845;DHT22;10583;49.084;8.646;2024-01-16T11:39:11;2.70;99.90
20845;DHT22;10583;49.084;8.646;2024-01-16T11:41:50;2.70;99.90
20845;DHT22;10583;49.084;8.646;2024-01-16T11:44:36;2.60;99.90
20845;DHT22;10583;49.084;8.646;2024-01-16T11:47:03;2.50;99.90
20845;DHT22;10583;49.084;8.646;2024-01-16T11:49:30;2.50;99.90
20845;DHT22;10583;49.084;8.646;2024-01-16T11:51:58;2.50;99.90
20845;DHT22;10583;49.084;8.646;2024-01-16T11:54:25;2.70;99.90
20845;DHT22;10583;49.084;8.646;2024-01-16T11:57:17;3.10;99.90
20845;DHT22;10583;49.084;8.646;2024-01-16T11:59:59;3.50;99.90
20845;DHT22;10583;49.084;8.646;2024-01-16T12:02:34;3.70;99.90
20845;DHT22;10583;49.084;8.646;2024-01-16T12:05:03;3.90;99.90
20845;DHT22;10583;49.084;8.646;2024-01-16T12:07:45;4.00;99.90
20845;DHT22;10583;49.084;8.646;2024-01-16T12:10:14;4.40;99.90
20845;DHT22;10583;49.084;8.646;2024-01-16T12:12:41;4.80;99.90
20845;DHT22;10583;49.084;8.646;2024-01-16T12:15:13;4.80;99.90
20845;DHT22;10583;49.084;8.646;2024-01-16T12:17:54;5.00;99.90
20845;DHT22;10583;49.084;8.646;2024-01-16T12:20:22;5.40;99.90
20845;DHT22;10583;49.084;8.646;2024-01-16T12:22:55;5.50;99.90
20845;DHT22;10583;49.084;8.646;2024-01-16T12:25:22;5.50;99.90
20845;DHT22;10583;49.084;8.646;2024-01-16T12:27:56;5.60;99.90
20845;DHT22;10583;49.084;8.646;2024-01-16T12:30:25;5.40;99.90
20845;DHT22;10583;49.084;8.646;2024-01-16T12:33:02;5.50;99.90
20845;DHT22;10583;49.084;8.646;2024-01-16T12:35:29;5.40;99.90
20845;DHT22;10583;49.084;8.646;2024-01-16T12:38:02;5.10;99.90
20845;DHT22;10583;49.084;8.646;2024-01-16T12:40:29;5.00;99.90
20845;DHT22;10583;49.084;8.646;2024-01-16T12:42:56;5.00;99.90
20845;DHT22;10583;49.084;8.646;2024-01-16T12:45:23;4.70;99.90
20845;DHT22;10583;49.084;8.646;2024-01-16T12:47:53;4.60;99.90
20845;DHT22;10583;49.084;8.646;2024-01-16T12:50:23;4.60;99.90
20845;DHT22;10583;49.084;8.646;2024-01-16T12:53:02;4.70;99.90
20845;DHT22;10583;49.084;8.646;2024-01-16T12:55:30;4.70;99.90
20845;DHT22;10583;49.084;8.646;2024-01-16T12:58:16;4.80;99.90
20845;DHT22;10583;49.084;8.646;2024-01-16T13:00:43;4.80;99.90
20845;DHT22;10583;49.084;8.646;2024-01-16T13:03:18;4.60;99.90
20845;DHT22;10583;49.084;8.646;2024-01-16T13:05:46;4.60;99.90
20845;DHT22;10583;49.084;8.646;2024-01-16T13:08:21;4.60;99.90
20845;DHT22;10583;49.084;8.646;2024-01-16T13:11:02;4.80;99.90
20845;DHT22;10583;49.084;8.646;2024-01-16T13:13:29;5.00;99.90
20845;DHT22;10583;49.084;8.646;2024-01-16T13:15:57;4.90;99.90
20845;DHT22;10583;49.084;8.646;2024-01-16T13:18:25;5.00;99.90
20845;DHT22;10583;49.084;8.646;2024-01-16T13:20:53;4.80;99.90
20845;DHT22;10583;49.084;8.646;2024-01-16T13:23:22;4.70;99.90
20845;DHT22;10583;49.084;8.646;2024-01-16T13:25:50;4.80;99.90
20845;DHT22;10583;49.084;8.646;2024-01-16T13:28:18;4.80;99.90
20845;DHT22;10583;49.084;8.646;2024-01-16T13:30:46;4.80;99.90
20845;DHT22;10583;49.084;8.646;2024-01-16T13:33:14;4.70;99.90
20845;DHT22;10583;49.084;8.646;2024-01-16T13:35:43;4.80;99.90
20845;DHT22;10583;49.084;8.646;2024-01-16T13:38:11;4.70;99.90
20845;DHT22;10583;49.084;8.646;2024-01-16T13:40:39;4.90;99.90
20845;DHT22;10583;49.084;8.646;2024-01-16T13:43:06;5.20;99.90
20845;DHT22;10583;49.084;8.646;2024-01-16T13:45:33;5.30;99.90
20845;DHT22;10583;49.084;8.646;2024-01-16T13:48:01;5.10;99.90
20845;DHT22;10583;49.084;8.646;2024-01-16T13:50:28;4.80;99.90
20845;DHT22;10583;49.084;8.646;2024-01-16T13:52:56;4.60;99.90
20845;DHT22;10583;49.084;8.646;2024-01-16T13:55:22;4.40;99.90
20845;DHT22;10583;49.084;8.646;2024-01-16T13:57:51;4.50;99.90
20845;DHT22;10583;49.084;8.646;2024-01-16T14:00:17;4.40;99.90
20845;DHT22;10583;49.084;8.646;2024-01-16T14:02:45;4.40;99.90
20845;DHT22;10583;49.084;8.646;2024-01-16T14:05:14;4.40;99.90
20845;DHT22;10583;49.084;8.646;2024-01-16T14:07:40;4.50;99.90
20845;DHT22;10583;49.084;8.646;2024-01-16T14:10:08;4.60;99.90
20845;DHT22;10583;49.084;8.646;2024-01-16T14:12:37;4.60;99.90
20845;DHT22;10583;49.084;8.646;2024-01-16T14:15:06;4.60;99.90
20845;DHT22;10583;49.084;8.646;2024-01-16T14:17:41;4.50;99.90
20845;DHT22;10583;49.084;8.646;2024-01-16T14:20:09;4.30;99.90
20845;DHT22;10583;49.084;8.646;2024-01-16T14:22:36;4.10;99.90
20845;DHT22;10583;49.084;8.646;2024-01-16T14:25:04;3.80;99.90
20845;DHT22;10583;49.084;8.646;2024-01-16T14:27:36;3.60;99.90
20845;DHT22;10583;49.084;8.646;2024-01-16T14:30:07;3.40;99.90
20845;DHT22;10583;49.084;8.646;2024-01-16T14:32:36;3.20;99.90
20845;DHT22;10583;49.084;8.646;2024-01-16T14:35:03;3.10;99.90
20845;DHT22;10583;49.084;8.646;2024-01-16T14:37:30;3.00;99.90
20845;DHT22;10583;49.084;8.646;2024-01-16T14:39:57;2.80;99.90
20845;DHT22;10583;49.084;8.646;2024-01-16T14:42:26;2.70;99.90
20845;DHT22;10583;49.084;8.646;2024-01-16T14:44:53;2.60;99.90
20845;DHT22;10583;49.084;8.646;2024-01-16T14:47:21;2.60;99.90
20845;DHT22;10583;49.084;8.646;2024-01-16T14:49:49;2.50;99.90
20845;DHT22;10583;49.084;8.646;2024-01-16T14:52:16;2.50;99.90
20845;DHT22;10583;49.084;8.646;2024-01-16T14:54:43;2.40;99.90
20845;DHT22;10583;49.084;8.646;2024-01-16T14:57:10;2.30;99.90
20845;DHT22;10583;49.084;8.646;2024-01-16T14:59:37;2.20;99.90
20845;DHT22;10583;49.084;8.646;2024-01-16T15:02:04;2.20;99.90
20845;DHT22;10583;49.084;8.646;2024-01-16T15:04:39;2.10;99.90
20845;DHT22;10583;49.084;8.646;2024-01-16T15:07:06;2.10;99.90
20845;DHT22;10583;49.084;8.646;2024-01-16T15:09:32;2.10;99.90
20845;DHT22;10583;49.084;8.646;2024-01-16T15:12:00;2.00;99.90
20845;DHT22;10583;49.084;8.646;2024-01-16T15:14:26;2.00;99.90
20845;DHT22;10583;49.084;8.646;2024-01-16T15:16:53;1.90;99.90
20845;DHT22;10583;49.084;8.646;2024-01-16T15:19:20;1.70;99.90
20845;DHT22;10583;49.084;8.646;2024-01-16T15:21:48;1.60;99.90
20845;DHT22;10583;49.084;8.646;2024-01-16T15:24:15;1.40;99.90
20845;DHT22;10583;49.084;8.646;2024-01-16T15:26:45;1.30;99.90
20845;DHT22;10583;49.084;8.646;2024-01-16T15:29:12;1.00;99.90
20845;DHT22;10583;49.084;8.646;2024-01-16T15:31:38;0.70;99.90
20845;DHT22;10583;49.084;8.646;2024-01-16T15:34:05;0.40;99.90
20845;DHT22;10583;49.084;8.646;2024-01-16T15:36:32;0.20;99.90
20845;DHT22;10583;49.084;8.646;2024-01-16T15:39:00;0.00;99.90
20845;DHT22;10583;49.084;8.646;2024-01-16T15:41:27;-0.20;99.90
20845;DHT22;10583;49.084;8.646;2024-01-16T15:43:54;-0.40;99.90